Ronnie Rogers — WDD2270 — position and weather

sailwx.info

Track history (hours):
 
Tides and Currents Weather Stations Pressure Air Temp Water Temp Dewpoint Dewpoint Depression Visibility Wind Speed Wind Dir Waves Ship Positions

Ronnie Rogers

Owner: Florida Marine, LLC, Mandeville, LA. More information available from US FCC via Universal Licensing System and Coast Guard Vessel Documentation Center.

Last reported at 2016-Jul-27 20:33 UTC. Time now 2016-Jul-27 21:07 UTC.
Position N 30°04' W 093°21'.

Length 27 m.

Type: Other ship. MMSI: 367113160.

Date/timePositionNaut miles runAvg speedWind from/ knotsBaromVisibWave heightAir tempDewpointWater temp
2016-Jul-27 20:33N 30°04' W 093°21'0 0.0
2016-Jul-27 19:33N 30°04' W 093°21'0 0.0
2016-Jul-27 18:34N 30°04' W 093°21'0 0.0
2016-Jul-27 17:33N 30°04' W 093°21'0 0.0
2016-Jul-27 16:34N 30°04' W 093°21'0 0.0
2016-Jul-27 15:33N 30°04' W 093°21'0 0.0
2016-Jul-27 14:33N 30°04' W 093°21'0 0.2
2016-Jul-27 13:33N 30°04' W 093°21'2 1.6
2016-Jul-27 12:33N 30°05' W 093°20'0 0.3
2016-Jul-27 11:34N 30°05' W 093°20'1 1.4
2016-Jul-27 10:33N 30°06' W 093°19'3 3.0
2016-Jul-27 09:33N 30°04' W 093°16'0 0.4
2016-Jul-27 08:33N 30°04' W 093°16'3 3.2
2016-Jul-27 07:33N 30°01' W 093°14'5 5.4
2016-Jul-27 06:33N 29°57' W 093°10'5 5.2
2016-Jul-27 05:33N 29°56' W 093°04'5 5.4
2016-Jul-27 04:33N 29°56' W 092°58'5 5.0
2016-Jul-27 03:29N 29°57' W 092°52'22 5.6
2016-Jul-26 23:33N 29°54' W 092°27'5 5.1
2016-Jul-26 22:33N 29°51' W 092°22'4 3.7
2016-Jul-26 21:33N 29°50' W 092°18'0 0.0
2016-Jul-26 20:33N 29°50' W 092°18'0 0.0
2016-Jul-26 19:33N 29°50' W 092°18'0 0.0
2016-Jul-26 18:33N 29°50' W 092°18'0 0.0
2016-Jul-26 17:33N 29°50' W 092°18'0 0.0
2016-Jul-26 16:33N 29°50' W 092°18'0 0.0
2016-Jul-26 15:33N 29°50' W 092°18'0 0.0
2016-Jul-26 14:33N 29°50' W 092°18'0 0.0
2016-Jul-26 13:34N 29°50' W 092°18'0 0.0
2016-Jul-26 12:33N 29°50' W 092°18'0 0.0
2016-Jul-26 11:33N 29°50' W 092°18'0 0.0
2016-Jul-26 10:33N 29°50' W 092°18'0 0.0
2016-Jul-26 09:33N 29°50' W 092°18'0 0.0
2016-Jul-26 08:33N 29°50' W 092°18'0 0.0
2016-Jul-26 07:33N 29°50' W 092°18'0 0.0
2016-Jul-26 06:33N 29°50' W 092°18'0 0.0
2016-Jul-26 05:33N 29°50' W 092°18'0 0.0
2016-Jul-26 04:33N 29°50' W 092°18'0 0.0
2016-Jul-26 03:33N 29°50' W 092°18'0 0.0
2016-Jul-26 02:33N 29°50' W 092°18'0 0.0
2016-Jul-26 01:33N 29°50' W 092°18'0 0.0
2016-Jul-26 00:33N 29°50' W 092°18'0 0.0
2016-Jul-25 23:33N 29°50' W 092°18'0 0.0
2016-Jul-25 22:34N 29°50' W 092°18'0 0.0
2016-Jul-25 21:33N 29°50' W 092°18'0 0.0
2016-Jul-25 20:33N 29°50' W 092°18'0 0.0
2016-Jul-25 19:33N 29°50' W 092°18'0 0.0
2016-Jul-25 18:33N 29°50' W 092°18'1 1.4
2016-Jul-25 17:33N 29°50' W 092°20'7 7.3
2016-Jul-25 16:33N 29°54' W 092°27'29 7.3
2016-Jul-25 12:31N 29°56' W 093°01'7 7.2
2016-Jul-25 11:33N 29°56' W 093°09'6 6.5
2016-Jul-25 10:33N 30°01' W 093°14'5 5.3
2016-Jul-25 09:33N 30°05' W 093°18'3 3.3
2016-Jul-25 08:33N 30°08' W 093°19'0 0.0
2016-Jul-25 07:33N 30°08' W 093°19'0 0.0
2016-Jul-25 06:33N 30°08' W 093°19'0 0.0
2016-Jul-25 05:33N 30°08' W 093°19'0 0.0
2016-Jul-25 04:33N 30°08' W 093°19'0 0.0
2016-Jul-25 03:33N 30°08' W 093°19'0 0.0
2016-Jul-25 02:33N 30°08' W 093°19'0 0.0
2016-Jul-25 01:33N 30°08' W 093°19'0 0.0
2016-Jul-25 00:33N 30°08' W 093°19'0 0.0
2016-Jul-24 23:33N 30°08' W 093°19'3 3.3
2016-Jul-24 22:33N 30°05' W 093°20'0 0.3
2016-Jul-24 21:33N 30°05' W 093°20'0 0.0
2016-Jul-24 20:33N 30°05' W 093°20'0 0.0
2016-Jul-24 19:33N 30°05' W 093°20'0 0.0
2016-Jul-24 18:33N 30°05' W 093°20'0 0.3
2016-Jul-24 17:33N 30°05' W 093°20'3 2.9
2016-Jul-24 16:33N 30°08' W 093°19'0 0.0
2016-Jul-24 15:33N 30°08' W 093°19'0 0.0
2016-Jul-24 14:33N 30°08' W 093°19'0 0.0
2016-Jul-24 13:33N 30°08' W 093°19'0 0.0
2016-Jul-24 12:33N 30°08' W 093°19'0 0.0
2016-Jul-24 11:33N 30°08' W 093°19'0 0.0
2016-Jul-24 10:33N 30°08' W 093°19'0 0.0
2016-Jul-24 09:33N 30°08' W 093°19'0 0.0
2016-Jul-24 08:33N 30°08' W 093°19'0 0.0
2016-Jul-24 07:33N 30°08' W 093°19'1 0.6
2016-Jul-24 06:33N 30°08' W 093°20'3 2.8
2016-Jul-24 05:34N 30°05' W 093°20'2 1.7
2016-Jul-24 04:33N 30°06' W 093°19'3 3.0
2016-Jul-24 03:33N 30°04' W 093°16'2 2.0
2016-Jul-24 02:33N 30°02' W 093°15'5 5.4
2016-Jul-24 01:33N 29°58' W 093°11'5 5.3
2016-Jul-24 00:32N 29°56' W 093°05'6 5.6
2016-Jul-23 23:32N 29°56' W 092°59'5 5.6
2016-Jul-23 22:33N 29°57' W 092°53'13 1.1
2016-Jul-23 10:29N 30°04' W 092°40'6 5.8
2016-Jul-23 09:31N 30°02' W 092°46'4 3.4
2016-Jul-23 08:26N 29°59' W 092°48'8 6.2
2016-Jul-23 07:11N 29°56' W 092°56'5 6.5
2016-Jul-23 06:29N 29°56' W 093°02'12 6.4
2016-Jul-23 04:33N 30°02' W 093°14'5 5.1
2016-Jul-23 03:33N 30°06' W 093°18'1 0.5
2016-Jul-23 02:33N 30°06' W 093°18'0 0.0
2016-Jul-23 01:33N 30°06' W 093°18'0 0.0
2016-Jul-23 00:33N 30°06' W 093°18'0 0.0
2016-Jul-22 23:33N 30°06' W 093°18'0 0.0
2016-Jul-22 22:33N 30°06' W 093°18'2 2.3
2016-Jul-22 21:34N 30°08' W 093°19'0 0.1
2016-Jul-22 20:33N 30°08' W 093°19'0 0.0
2016-Jul-22 19:33N 30°08' W 093°19'0 0.0
2016-Jul-22 18:33N 30°08' W 093°19'0 0.0
2016-Jul-22 17:33N 30°08' W 093°19'0 0.0
2016-Jul-22 16:33N 30°08' W 093°19'0 0.0
2016-Jul-22 15:33N 30°08' W 093°19'0 0.0
2016-Jul-22 14:33N 30°08' W 093°19'0 0.0
2016-Jul-22 13:33N 30°08' W 093°19'0 0.0
2016-Jul-22 12:33N 30°08' W 093°19'0 0.0
2016-Jul-22 11:33N 30°08' W 093°19'0 0.0
2016-Jul-22 10:33N 30°08' W 093°19'0 0.0
2016-Jul-22 09:33N 30°08' W 093°19'0 0.0
2016-Jul-22 08:33N 30°08' W 093°19'0 0.0
2016-Jul-22 07:33N 30°08' W 093°19'3 1.7
2016-Jul-22 05:33N 30°05' W 093°20'0 0.0
2016-Jul-22 04:33N 30°05' W 093°20'0 0.0
2016-Jul-22 03:33N 30°05' W 093°20'0 0.0
2016-Jul-22 02:33N 30°05' W 093°20'1 1.4
2016-Jul-22 01:33N 30°04' W 093°21'1 1.4
2016-Jul-22 00:33N 30°05' W 093°20'0 0.0
2016-Jul-21 23:33N 30°05' W 093°20'0 0.0
2016-Jul-21 22:33N 30°05' W 093°20'2 1.5
2016-Jul-21 21:33N 30°04' W 093°21'2 1.8
2016-Jul-21 20:33N 30°05' W 093°20'0 0.4
2016-Jul-21 19:33N 30°05' W 093°20'0 0.0
2016-Jul-21 18:33N 30°05' W 093°20'0 0.0
2016-Jul-21 17:33N 30°05' W 093°20'0 0.0
2016-Jul-21 16:33N 30°05' W 093°20'0 0.0
2016-Jul-21 15:33N 30°05' W 093°20'0 0.0
2016-Jul-21 14:33N 30°05' W 093°20'0 0.0
2016-Jul-21 13:33N 30°05' W 093°20'0 0.0
2016-Jul-21 12:33N 30°05' W 093°20'0 0.0
2016-Jul-21 11:33N 30°05' W 093°20'0 0.0
2016-Jul-21 10:33N 30°05' W 093°20'0 0.0
2016-Jul-21 09:33N 30°05' W 093°20'0 0.0
2016-Jul-21 08:33N 30°05' W 093°20'0 0.0
2016-Jul-21 07:33N 30°05' W 093°20'0 0.0
2016-Jul-21 06:33N 30°05' W 093°20'0 0.0
2016-Jul-21 05:33N 30°05' W 093°20'0 0.0
2016-Jul-21 04:32N 30°05' W 093°20'0 0.0
2016-Jul-21 03:33N 30°05' W 093°20'0 0.0
2016-Jul-21 02:33N 30°05' W 093°20'0 0.0
2016-Jul-21 01:34N 30°05' W 093°20'0 0.0
2016-Jul-21 00:33N 30°05' W 093°20'0 0.0
2016-Jul-20 23:33N 30°05' W 093°20'0 0.0
2016-Jul-20 22:33N 30°05' W 093°20'2 1.5
2016-Jul-20 21:33N 30°04' W 093°21'2 1.5
2016-Jul-20 20:33N 30°05' W 093°20'0 0.0
2016-Jul-20 19:33N 30°05' W 093°20'0 0.0
2016-Jul-20 18:33N 30°05' W 093°20'0 0.0
2016-Jul-20 17:33N 30°05' W 093°20'0 0.0
2016-Jul-20 16:33N 30°05' W 093°20'0 0.0
2016-Jul-20 15:33N 30°05' W 093°20'0 0.0
2016-Jul-20 14:33N 30°05' W 093°20'0 0.0
2016-Jul-20 13:33N 30°05' W 093°20'0 0.0
2016-Jul-20 12:33N 30°05' W 093°20'0 0.0
2016-Jul-20 11:33N 30°05' W 093°20'0 0.0
2016-Jul-20 10:33N 30°05' W 093°20'0 0.0
2016-Jul-20 09:34N 30°05' W 093°20'0 0.0
2016-Jul-20 08:33N 30°05' W 093°20'0 0.0
2016-Jul-20 07:33N 30°05' W 093°20'0 0.0
2016-Jul-20 06:34N 30°05' W 093°20'0 0.0
2016-Jul-20 05:33N 30°05' W 093°20'0 0.0
2016-Jul-20 04:33N 30°05' W 093°20'0 0.0
2016-Jul-20 03:33N 30°05' W 093°20'0 0.0
2016-Jul-20 02:33N 30°05' W 093°20'0 0.0
2016-Jul-20 01:33N 30°05' W 093°20'0 0.0
2016-Jul-20 00:33N 30°05' W 093°20'0 0.0
2016-Jul-19 23:33N 30°05' W 093°20'0 0.0
2016-Jul-19 22:33N 30°05' W 093°20'0 0.3
2016-Jul-19 21:33N 30°05' W 093°20'0 0.0
2016-Jul-19 20:33N 30°05' W 093°20'0 0.0
2016-Jul-19 19:33N 30°05' W 093°20'0 0.0
2016-Jul-19 18:33N 30°05' W 093°20'0 0.0
2016-Jul-19 17:33N 30°05' W 093°20'0 0.0
2016-Jul-19 16:33N 30°05' W 093°20'0 0.0
2016-Jul-19 15:33N 30°05' W 093°20'0 0.0
2016-Jul-19 14:33N 30°05' W 093°20'0 0.0
2016-Jul-19 13:33N 30°05' W 093°20'0 0.3
2016-Jul-19 12:33N 30°05' W 093°20'0 0.0
2016-Jul-19 11:33N 30°05' W 093°20'0 0.0
2016-Jul-19 10:33N 30°05' W 093°20'0 0.0
2016-Jul-19 09:33N 30°05' W 093°20'0 0.0
2016-Jul-19 08:33N 30°05' W 093°20'0 0.0
2016-Jul-19 07:33N 30°05' W 093°20'0 0.0
2016-Jul-19 04:33N 30°05' W 093°20'0 0.0
2016-Jul-19 03:33N 30°05' W 093°20'0 0.0
2016-Jul-19 02:33N 30°05' W 093°20'0 0.0
2016-Jul-19 01:33N 30°05' W 093°20'0 0.0
2016-Jul-19 00:33N 30°05' W 093°20'0 0.0
2016-Jul-18 23:33N 30°05' W 093°20'0 0.0
2016-Jul-18 22:33N 30°05' W 093°20'0 0.0
2016-Jul-18 21:33N 30°05' W 093°20'0 0.0
2016-Jul-18 20:33N 30°05' W 093°20'0 0.0
2016-Jul-18 19:33N 30°05' W 093°20'0 0.0
2016-Jul-18 18:33N 30°05' W 093°20'0 0.0
2016-Jul-18 17:33N 30°05' W 093°20'0 0.0
2016-Jul-18 16:33N 30°05' W 093°20'0 0.0
2016-Jul-18 15:33N 30°05' W 093°20'0 0.0
2016-Jul-18 14:33N 30°05' W 093°20'0 0.0
2016-Jul-18 13:33N 30°05' W 093°20'0 0.0
2016-Jul-18 12:33N 30°05' W 093°20'0 0.0
2016-Jul-18 11:33N 30°05' W 093°20'0 0.0
2016-Jul-18 10:33N 30°05' W 093°20'0 0.0
2016-Jul-18 09:33N 30°05' W 093°20'0 0.0
2016-Jul-18 08:33N 30°05' W 093°20'0 0.0
2016-Jul-18 07:33N 30°05' W 093°20'0 0.0
2016-Jul-18 06:33N 30°05' W 093°20'0 0.0
2016-Jul-18 05:33N 30°05' W 093°20'2 2.1
2016-Jul-18 04:33N 30°06' W 093°18'0 0.0
2016-Jul-18 03:33N 30°06' W 093°18'2 1.8
2016-Jul-18 02:33N 30°05' W 093°20'0 0.4
2016-Jul-18 01:33N 30°05' W 093°20'0 0.0
2016-Jul-18 00:33N 30°05' W 093°20'0 0.0
2016-Jul-17 23:33N 30°05' W 093°20'0 0.0
2016-Jul-17 22:33N 30°05' W 093°20'0 0.0
2016-Jul-17 21:33N 30°05' W 093°20'0 0.0
2016-Jul-17 20:33N 30°05' W 093°20'  
Track history (hours):
 
Tides and Currents Weather Stations Pressure Air Temp Water Temp Dewpoint Dewpoint Depression Visibility Wind Speed Wind Dir Waves Ship Positions

Ronnie Rogers

Owner: Florida Marine, LLC, Mandeville, LA. More information available from US FCC via Universal Licensing System and Coast Guard Vessel Documentation Center.

Last reported at 2016-Jul-27 20:33 UTC. Time now 2016-Jul-27 21:07 UTC.
Position N 30°04' W 093°21'.

Length 27 m.

Type: Other ship. MMSI: 367113160.

Date/timePositionNaut miles runAvg speedWind from/ knotsBaromVisibWave heightAir tempDewpointWater temp
2016-Jul-27 20:33N 30°04' W 093°21'0 0.0
2016-Jul-27 19:33N 30°04' W 093°21'0 0.0
2016-Jul-27 18:34N 30°04' W 093°21'0 0.0
2016-Jul-27 17:33N 30°04' W 093°21'0 0.0
2016-Jul-27 16:34N 30°04' W 093°21'0 0.0
2016-Jul-27 15:33N 30°04' W 093°21'0 0.0
2016-Jul-27 14:33N 30°04' W 093°21'0 0.2
2016-Jul-27 13:33N 30°04' W 093°21'2 1.6
2016-Jul-27 12:33N 30°05' W 093°20'0 0.3
2016-Jul-27 11:34N 30°05' W 093°20'1 1.4
2016-Jul-27 10:33N 30°06' W 093°19'3 3.0
2016-Jul-27 09:33N 30°04' W 093°16'0 0.4
2016-Jul-27 08:33N 30°04' W 093°16'3 3.2
2016-Jul-27 07:33N 30°01' W 093°14'5 5.4
2016-Jul-27 06:33N 29°57' W 093°10'5 5.2
2016-Jul-27 05:33N 29°56' W 093°04'5 5.4
2016-Jul-27 04:33N 29°56' W 092°58'5 5.0
2016-Jul-27 03:29N 29°57' W 092°52'22 5.6
2016-Jul-26 23:33N 29°54' W 092°27'5 5.1
2016-Jul-26 22:33N 29°51' W 092°22'4 3.7
2016-Jul-26 21:33N 29°50' W 092°18'0 0.0
2016-Jul-26 20:33N 29°50' W 092°18'0 0.0
2016-Jul-26 19:33N 29°50' W 092°18'0 0.0
2016-Jul-26 18:33N 29°50' W 092°18'0 0.0
2016-Jul-26 17:33N 29°50' W 092°18'0 0.0
2016-Jul-26 16:33N 29°50' W 092°18'0 0.0
2016-Jul-26 15:33N 29°50' W 092°18'0 0.0
2016-Jul-26 14:33N 29°50' W 092°18'0 0.0
2016-Jul-26 13:34N 29°50' W 092°18'0 0.0
2016-Jul-26 12:33N 29°50' W 092°18'0 0.0
2016-Jul-26 11:33N 29°50' W 092°18'0 0.0
2016-Jul-26 10:33N 29°50' W 092°18'0 0.0
2016-Jul-26 09:33N 29°50' W 092°18'0 0.0
2016-Jul-26 08:33N 29°50' W 092°18'0 0.0
2016-Jul-26 07:33N 29°50' W 092°18'0 0.0
2016-Jul-26 06:33N 29°50' W 092°18'0 0.0
2016-Jul-26 05:33N 29°50' W 092°18'0 0.0
2016-Jul-26 04:33N 29°50' W 092°18'0 0.0
2016-Jul-26 03:33N 29°50' W 092°18'0 0.0
2016-Jul-26 02:33N 29°50' W 092°18'0 0.0
2016-Jul-26 01:33N 29°50' W 092°18'0 0.0
2016-Jul-26 00:33N 29°50' W 092°18'0 0.0
2016-Jul-25 23:33N 29°50' W 092°18'0 0.0
2016-Jul-25 22:34N 29°50' W 092°18'0 0.0
2016-Jul-25 21:33N 29°50' W 092°18'0 0.0
2016-Jul-25 20:33N 29°50' W 092°18'0 0.0
2016-Jul-25 19:33N 29°50' W 092°18'0 0.0
2016-Jul-25 18:33N 29°50' W 092°18'1 1.4
2016-Jul-25 17:33N 29°50' W 092°20'7 7.3
2016-Jul-25 16:33N 29°54' W 092°27'29 7.3
2016-Jul-25 12:31N 29°56' W 093°01'7 7.2
2016-Jul-25 11:33N 29°56' W 093°09'6 6.5
2016-Jul-25 10:33N 30°01' W 093°14'5 5.3
2016-Jul-25 09:33N 30°05' W 093°18'3 3.3
2016-Jul-25 08:33N 30°08' W 093°19'0 0.0
2016-Jul-25 07:33N 30°08' W 093°19'0 0.0
2016-Jul-25 06:33N 30°08' W 093°19'0 0.0
2016-Jul-25 05:33N 30°08' W 093°19'0 0.0
2016-Jul-25 04:33N 30°08' W 093°19'0 0.0
2016-Jul-25 03:33N 30°08' W 093°19'0 0.0
2016-Jul-25 02:33N 30°08' W 093°19'0 0.0
2016-Jul-25 01:33N 30°08' W 093°19'0 0.0
2016-Jul-25 00:33N 30°08' W 093°19'0 0.0
2016-Jul-24 23:33N 30°08' W 093°19'3 3.3
2016-Jul-24 22:33N 30°05' W 093°20'0 0.3
2016-Jul-24 21:33N 30°05' W 093°20'0 0.0
2016-Jul-24 20:33N 30°05' W 093°20'0 0.0
2016-Jul-24 19:33N 30°05' W 093°20'0 0.0
2016-Jul-24 18:33N 30°05' W 093°20'0 0.3
2016-Jul-24 17:33N 30°05' W 093°20'3 2.9
2016-Jul-24 16:33N 30°08' W 093°19'0 0.0
2016-Jul-24 15:33N 30°08' W 093°19'0 0.0
2016-Jul-24 14:33N 30°08' W 093°19'0 0.0
2016-Jul-24 13:33N 30°08' W 093°19'0 0.0
2016-Jul-24 12:33N 30°08' W 093°19'0 0.0
2016-Jul-24 11:33N 30°08' W 093°19'0 0.0
2016-Jul-24 10:33N 30°08' W 093°19'0 0.0
2016-Jul-24 09:33N 30°08' W 093°19'0 0.0
2016-Jul-24 08:33N 30°08' W 093°19'0 0.0
2016-Jul-24 07:33N 30°08' W 093°19'1 0.6
2016-Jul-24 06:33N 30°08' W 093°20'3 2.8
2016-Jul-24 05:34N 30°05' W 093°20'2 1.7
2016-Jul-24 04:33N 30°06' W 093°19'3 3.0
2016-Jul-24 03:33N 30°04' W 093°16'2 2.0
2016-Jul-24 02:33N 30°02' W 093°15'5 5.4
2016-Jul-24 01:33N 29°58' W 093°11'5 5.3
2016-Jul-24 00:32N 29°56' W 093°05'6 5.6
2016-Jul-23 23:32N 29°56' W 092°59'5 5.6
2016-Jul-23 22:33N 29°57' W 092°53'13 1.1
2016-Jul-23 10:29N 30°04' W 092°40'6 5.8
2016-Jul-23 09:31N 30°02' W 092°46'4 3.4
2016-Jul-23 08:26N 29°59' W 092°48'8 6.2
2016-Jul-23 07:11N 29°56' W 092°56'5 6.5
2016-Jul-23 06:29N 29°56' W 093°02'12 6.4
2016-Jul-23 04:33N 30°02' W 093°14'5 5.1
2016-Jul-23 03:33N 30°06' W 093°18'1 0.5
2016-Jul-23 02:33N 30°06' W 093°18'0 0.0
2016-Jul-23 01:33N 30°06' W 093°18'0 0.0
2016-Jul-23 00:33N 30°06' W 093°18'0 0.0
2016-Jul-22 23:33N 30°06' W 093°18'0 0.0
2016-Jul-22 22:33N 30°06' W 093°18'2 2.3
2016-Jul-22 21:34N 30°08' W 093°19'0 0.1
2016-Jul-22 20:33N 30°08' W 093°19'0 0.0
2016-Jul-22 19:33N 30°08' W 093°19'0 0.0
2016-Jul-22 18:33N 30°08' W 093°19'0 0.0
2016-Jul-22 17:33N 30°08' W 093°19'0 0.0
2016-Jul-22 16:33N 30°08' W 093°19'0 0.0
2016-Jul-22 15:33N 30°08' W 093°19'0 0.0
2016-Jul-22 14:33N 30°08' W 093°19'0 0.0
2016-Jul-22 13:33N 30°08' W 093°19'0 0.0
2016-Jul-22 12:33N 30°08' W 093°19'0 0.0
2016-Jul-22 11:33N 30°08' W 093°19'0 0.0
2016-Jul-22 10:33N 30°08' W 093°19'0 0.0
2016-Jul-22 09:33N 30°08' W 093°19'0 0.0
2016-Jul-22 08:33N 30°08' W 093°19'0 0.0
2016-Jul-22 07:33N 30°08' W 093°19'3 1.7
2016-Jul-22 05:33N 30°05' W 093°20'0 0.0
2016-Jul-22 04:33N 30°05' W 093°20'0 0.0
2016-Jul-22 03:33N 30°05' W 093°20'0 0.0
2016-Jul-22 02:33N 30°05' W 093°20'1 1.4
2016-Jul-22 01:33N 30°04' W 093°21'1 1.4
2016-Jul-22 00:33N 30°05' W 093°20'0 0.0
2016-Jul-21 23:33N 30°05' W 093°20'0 0.0
2016-Jul-21 22:33N 30°05' W 093°20'2 1.5
2016-Jul-21 21:33N 30°04' W 093°21'2 1.8
2016-Jul-21 20:33N 30°05' W 093°20'0 0.4
2016-Jul-21 19:33N 30°05' W 093°20'0 0.0
2016-Jul-21 18:33N 30°05' W 093°20'0 0.0
2016-Jul-21 17:33N 30°05' W 093°20'0 0.0
2016-Jul-21 16:33N 30°05' W 093°20'0 0.0
2016-Jul-21 15:33N 30°05' W 093°20'0 0.0
2016-Jul-21 14:33N 30°05' W 093°20'0 0.0
2016-Jul-21 13:33N 30°05' W 093°20'0 0.0
2016-Jul-21 12:33N 30°05' W 093°20'0 0.0
2016-Jul-21 11:33N 30°05' W 093°20'0 0.0
2016-Jul-21 10:33N 30°05' W 093°20'0 0.0
2016-Jul-21 09:33N 30°05' W 093°20'0 0.0
2016-Jul-21 08:33N 30°05' W 093°20'0 0.0
2016-Jul-21 07:33N 30°05' W 093°20'0 0.0
2016-Jul-21 06:33N 30°05' W 093°20'0 0.0
2016-Jul-21 05:33N 30°05' W 093°20'0 0.0
2016-Jul-21 04:32N 30°05' W 093°20'0 0.0
2016-Jul-21 03:33N 30°05' W 093°20'0 0.0
2016-Jul-21 02:33N 30°05' W 093°20'0 0.0
2016-Jul-21 01:34N 30°05' W 093°20'0 0.0
2016-Jul-21 00:33N 30°05' W 093°20'0 0.0
2016-Jul-20 23:33N 30°05' W 093°20'0 0.0
2016-Jul-20 22:33N 30°05' W 093°20'2 1.5
2016-Jul-20 21:33N 30°04' W 093°21'2 1.5
2016-Jul-20 20:33N 30°05' W 093°20'0 0.0
2016-Jul-20 19:33N 30°05' W 093°20'0 0.0
2016-Jul-20 18:33N 30°05' W 093°20'0 0.0
2016-Jul-20 17:33N 30°05' W 093°20'0 0.0
2016-Jul-20 16:33N 30°05' W 093°20'0 0.0
2016-Jul-20 15:33N 30°05' W 093°20'0 0.0
2016-Jul-20 14:33N 30°05' W 093°20'0 0.0
2016-Jul-20 13:33N 30°05' W 093°20'0 0.0
2016-Jul-20 12:33N 30°05' W 093°20'0 0.0
2016-Jul-20 11:33N 30°05' W 093°20'0 0.0
2016-Jul-20 10:33N 30°05' W 093°20'0 0.0
2016-Jul-20 09:34N 30°05' W 093°20'0 0.0
2016-Jul-20 08:33N 30°05' W 093°20'0 0.0
2016-Jul-20 07:33N 30°05' W 093°20'0 0.0
2016-Jul-20 06:34N 30°05' W 093°20'0 0.0
2016-Jul-20 05:33N 30°05' W 093°20'0 0.0
2016-Jul-20 04:33N 30°05' W 093°20'0 0.0
2016-Jul-20 03:33N 30°05' W 093°20'0 0.0
2016-Jul-20 02:33N 30°05' W 093°20'0 0.0
2016-Jul-20 01:33N 30°05' W 093°20'0 0.0
2016-Jul-20 00:33N 30°05' W 093°20'0 0.0
2016-Jul-19 23:33N 30°05' W 093°20'0 0.0
2016-Jul-19 22:33N 30°05' W 093°20'0 0.3
2016-Jul-19 21:33N 30°05' W 093°20'0 0.0
2016-Jul-19 20:33N 30°05' W 093°20'0 0.0
2016-Jul-19 19:33N 30°05' W 093°20'0 0.0
2016-Jul-19 18:33N 30°05' W 093°20'0 0.0
2016-Jul-19 17:33N 30°05' W 093°20'0 0.0
2016-Jul-19 16:33N 30°05' W 093°20'0 0.0
2016-Jul-19 15:33N 30°05' W 093°20'0 0.0
2016-Jul-19 14:33N 30°05' W 093°20'0 0.0
2016-Jul-19 13:33N 30°05' W 093°20'0 0.3
2016-Jul-19 12:33N 30°05' W 093°20'0 0.0
2016-Jul-19 11:33N 30°05' W 093°20'0 0.0
2016-Jul-19 10:33N 30°05' W 093°20'0 0.0
2016-Jul-19 09:33N 30°05' W 093°20'0 0.0
2016-Jul-19 08:33N 30°05' W 093°20'0 0.0
2016-Jul-19 07:33N 30°05' W 093°20'0 0.0
2016-Jul-19 04:33N 30°05' W 093°20'0 0.0
2016-Jul-19 03:33N 30°05' W 093°20'0 0.0
2016-Jul-19 02:33N 30°05' W 093°20'0 0.0
2016-Jul-19 01:33N 30°05' W 093°20'0 0.0
2016-Jul-19 00:33N 30°05' W 093°20'0 0.0
2016-Jul-18 23:33N 30°05' W 093°20'0 0.0
2016-Jul-18 22:33N 30°05' W 093°20'0 0.0
2016-Jul-18 21:33N 30°05' W 093°20'0 0.0
2016-Jul-18 20:33N 30°05' W 093°20'0 0.0
2016-Jul-18 19:33N 30°05' W 093°20'0 0.0
2016-Jul-18 18:33N 30°05' W 093°20'0 0.0
2016-Jul-18 17:33N 30°05' W 093°20'0 0.0
2016-Jul-18 16:33N 30°05' W 093°20'0 0.0
2016-Jul-18 15:33N 30°05' W 093°20'0 0.0
2016-Jul-18 14:33N 30°05' W 093°20'0 0.0
2016-Jul-18 13:33N 30°05' W 093°20'0 0.0
2016-Jul-18 12:33N 30°05' W 093°20'0 0.0
2016-Jul-18 11:33N 30°05' W 093°20'0 0.0
2016-Jul-18 10:33N 30°05' W 093°20'0 0.0
2016-Jul-18 09:33N 30°05' W 093°20'0 0.0
2016-Jul-18 08:33N 30°05' W 093°20'0 0.0
2016-Jul-18 07:33N 30°05' W 093°20'0 0.0
2016-Jul-18 06:33N 30°05' W 093°20'0 0.0
2016-Jul-18 05:33N 30°05' W 093°20'2 2.1
2016-Jul-18 04:33N 30°06' W 093°18'0 0.0
2016-Jul-18 03:33N 30°06' W 093°18'2 1.8
2016-Jul-18 02:33N 30°05' W 093°20'0 0.4
2016-Jul-18 01:33N 30°05' W 093°20'0 0.0
2016-Jul-18 00:33N 30°05' W 093°20'0 0.0
2016-Jul-17 23:33N 30°05' W 093°20'0 0.0
2016-Jul-17 22:33N 30°05' W 093°20'0 0.0
2016-Jul-17 21:33N 30°05' W 093°20'0 0.0
2016-Jul-17 20:33N 30°05' W 093°20'  

Dump ship's entire track history